Time;durP1;ratioP1;P1;durP2;ratioP2;P2;SDS_P1;SDS_P2;PMS_P1;PMS_P2;Temp;Humidity;BMP_temperature;BMP_pressure;BME280_temperature;BME280_humidity;BME280_pressure;Samples;Min_cycle;Max_cycle;Signal;HPM_P1;HPM_P2
2024/04/25 00:02:01;;;;;;;0.00;0.00;;;21.30;42.40;;;;;;5335781;26;20223;-48
2024/04/25 00:04:34;;;;;;;0.10;0.10;;;21.30;42.40;;;;;;5336739;26;20777;-55
2024/04/25 00:07:06;;;;;;;0.10;0.10;;;21.30;42.50;;;;;;5337361;26;20565;-52
2024/04/25 00:09:39;;;;;;;0.00;0.00;;;21.30;43.10;;;;;;5337151;26;20582;-52
2024/04/25 00:12:14;;;;;;;0.00;0.00;;;21.40;42.50;;;;;;5336858;26;20265;-47
2024/04/25 00:14:46;;;;;;;0.10;0.10;;;21.40;42.50;;;;;;5336577;26;20262;-55
2024/04/25 00:17:20;;;;;;;0.05;0.05;;;21.40;42.50;;;;;;5352512;21;20262;-50
2024/04/25 00:19:52;;;;;;;0.10;0.10;;;21.40;42.50;;;;;;5370782;26;20319;-51
2024/04/25 00:22:25;;;;;;;0.00;0.00;;;21.50;42.50;;;;;;5371389;26;20218;-48
2024/04/25 00:24:57;;;;;;;0.00;0.00;;;21.50;42.40;;;;;;5371981;26;20701;-49
2024/04/25 00:27:32;;;;;;;0.00;0.00;;;21.50;42.30;;;;;;5370783;26;20222;-51
2024/04/25 00:30:05;;;;;;;0.00;0.00;;;21.60;42.30;;;;;;5336531;26;20227;-52
2024/04/25 00:32:37;;;;;;;0.10;0.10;;;21.60;42.30;;;;;;5337019;26;20219;-49
2024/04/25 00:35:09;;;;;;;0.03;0.03;;;21.60;42.10;;;;;;5337095;26;20219;-50
2024/04/25 00:37:42;;;;;;;0.05;0.05;;;21.70;42.10;;;;;;5336808;26;20223;-55
2024/04/25 00:40:15;;;;;;;0.10;0.10;;;21.70;42.00;;;;;;5343196;26;20576;-51
2024/04/25 00:42:51;;;;;;;0.00;0.00;;;21.70;42.00;;;;;;5372074;26;20218;-53
2024/04/25 00:45:23;;;;;;;0.00;0.00;;;21.70;42.00;;;;;;5370870;26;20210;-49
2024/04/25 00:47:57;;;;;;;0.00;0.00;;;21.80;42.00;;;;;;5372267;26;20226;-49
2024/04/25 00:50:30;;;;;;;0.10;0.10;;;21.80;41.90;;;;;;5370673;26;20339;-51
2024/04/25 00:53:03;;;;;;;0.10;0.10;;;21.80;41.90;;;;;;5368384;26;20423;-51
2024/04/25 00:55:36;;;;;;;0.05;0.05;;;21.80;41.90;;;;;;5336742;26;20932;-50
2024/04/25 00:58:15;;;;;;;0.10;0.10;;;21.90;41.80;;;;;;5335370;26;20219;-47
2024/04/25 01:00:48;;;;;;;0.00;0.00;;;21.90;41.80;;;;;;5342869;26;20280;-50
2024/04/25 01:03:21;;;;;;;0.00;0.00;;;22.00;41.80;;;;;;5344778;26;20235;-52
2024/04/25 01:05:55;;;;;;;0.00;0.00;;;22.00;41.80;;;;;;5337301;26;20553;-50
2024/04/25 01:08:28;;;;;;;0.10;0.10;;;22.00;41.80;;;;;;5364984;26;20867;-51
2024/04/25 01:11:00;;;;;;;0.00;0.00;;;22.00;41.90;;;;;;5371486;26;20273;-48
2024/04/25 01:13:35;;;;;;;0.10;0.10;;;22.10;42.00;;;;;;5371023;26;20222;-54
2024/04/25 01:18:38;;;;;;;0.10;0.10;;;22.10;42.00;;;;;;5368175;26;20596;-48
2024/04/25 01:21:10;;;;;;;0.00;0.00;;;22.20;41.90;;;;;;5369253;26;20847;-48
2024/04/25 01:23:44;;;;;;;0.00;0.00;;;22.20;41.70;;;;;;5369634;26;20226;-47
2024/04/25 01:26:21;;;;;;;0.00;0.00;;;22.20;41.60;;;;;;5371363;26;20270;-46
2024/04/25 01:28:54;;;;;;;0.05;0.05;;;22.30;41.40;;;;;;5369669;26;20304;-59
2024/04/25 01:31:27;;;;;;;0.00;0.00;;;22.30;41.30;;;;;;5371122;26;20261;-58
2024/04/25 01:33:59;;;;;;;0.10;0.10;;;22.40;41.20;;;;;;5369874;26;20637;-58
2024/04/25 01:36:32;;;;;;;0.00;0.00;;;22.40;41.10;;;;;;5370553;26;20214;-59
2024/04/25 01:39:04;;;;;;;0.00;0.00;;;22.40;41.00;;;;;;5369899;26;20335;-48
2024/04/25 01:41:40;;;;;;;0.00;0.00;;;22.50;41.00;;;;;;5370570;26;20241;-50
2024/04/25 01:44:12;;;;;;;0.00;0.00;;;22.50;41.00;;;;;;5371616;26;20323;-52
2024/04/25 01:46:45;;;;;;;0.00;0.00;;;22.50;40.90;;;;;;5370218;26;20314;-46
2024/04/25 01:49:18;;;;;;;0.00;0.00;;;22.60;40.90;;;;;;5370439;26;20342;-47
2024/04/25 01:51:50;;;;;;;0.00;0.00;;;22.60;40.80;;;;;;5369737;26;20218;-47
2024/04/25 01:54:22;;;;;;;0.00;0.00;;;22.60;40.80;;;;;;5371096;26;20218;-51
2024/04/25 01:56:59;;;;;;;0.00;0.00;;;22.60;40.70;;;;;;5369694;26;20277;-50
2024/04/25 01:59:31;;;;;;;0.00;0.00;;;22.70;40.70;;;;;;5367649;26;20230;-47
2024/04/25 02:02:03;;;;;;;0.00;0.00;;;22.70;40.60;;;;;;5368983;26;20590;-48
2024/04/25 02:04:35;;;;;;;0.00;0.00;;;22.70;40.50;;;;;;5369395;26;20292;-50
2024/04/25 02:07:10;;;;;;;0.03;0.03;;;22.80;40.50;;;;;;5373294;26;20215;-47
2024/04/25 02:09:43;;;;;;;0.00;0.00;;;22.80;40.40;;;;;;5371922;26;20632;-47
2024/04/25 02:12:18;;;;;;;0.00;0.00;;;22.80;40.40;;;;;;5371486;26;20214;-48
2024/04/25 02:14:51;;;;;;;0.00;0.00;;;22.90;40.40;;;;;;5371917;26;20653;-49
2024/04/25 02:17:23;;;;;;;0.03;0.03;;;22.90;40.30;;;;;;5374290;26;20363;-47
2024/04/25 02:19:55;;;;;;;0.00;0.00;;;22.90;40.30;;;;;;5373216;26;20230;-47
2024/04/25 02:25:22;;;;;;;0.00;0.00;;;23.00;40.30;;;;;;5374917;26;20278;-47
2024/04/25 02:27:57;;;;;;;0.08;0.08;;;23.00;40.40;;;;;;5372498;26;20288;-49
2024/04/25 02:30:29;;;;;;;0.00;0.00;;;23.00;40.30;;;;;;5373533;26;20241;-51
2024/04/25 02:33:01;;;;;;;0.10;0.10;;;23.10;40.30;;;;;;5373329;26;20257;-47
2024/04/25 02:35:34;;;;;;;0.00;0.00;;;23.10;40.30;;;;;;5374460;26;20264;-47
2024/04/25 02:38:06;;;;;;;0.10;0.10;;;23.10;40.20;;;;;;5372953;26;20721;-47
2024/04/25 02:40:38;;;;;;;0.00;0.00;;;23.10;40.00;;;;;;5373638;26;20230;-46
2024/04/25 02:43:15;;;;;;;0.00;0.00;;;23.20;40.00;;;;;;5373191;26;20698;-47
2024/04/25 02:45:44;;;;;;;0.00;0.00;;;23.20;40.00;;;;;;5372366;26;20225;-48
2024/04/25 02:48:16;;;;;;;0.00;0.00;;;23.20;40.00;;;;;;5373191;26;20319;-51
2024/04/25 02:50:45;;;;;;;0.00;0.00;;;23.30;39.90;;;;;;5371387;26;20305;-48
2024/04/25 02:53:20;;;;;;;0.00;0.00;;;23.30;39.90;;;;;;5372850;26;20260;-48
2024/04/25 02:55:49;;;;;;;0.00;0.00;;;23.30;39.90;;;;;;5373099;26;20273;-46
2024/04/25 02:58:24;;;;;;;0.00;0.00;;;23.30;39.80;;;;;;5374122;26;20226;-47
2024/04/25 03:00:59;;;;;;;0.00;0.00;;;23.30;39.80;;;;;;5369543;26;20249;-49
2024/04/25 03:03:31;;;;;;;0.00;0.00;;;23.40;39.80;;;;;;5373265;26;20721;-47
2024/04/25 03:06:01;;;;;;;0.00;0.00;;;23.40;39.70;;;;;;5372142;26;20637;-48
2024/04/25 03:08:33;;;;;;;0.00;0.00;;;23.40;39.80;;;;;;5372670;26;20233;-49
2024/04/25 03:11:05;;;;;;;0.00;0.00;;;23.40;39.80;;;;;;5373461;26;20257;-48
2024/04/25 03:13:41;;;;;;;0.00;0.00;;;23.40;39.80;;;;;;5371847;26;20222;-49
2024/04/25 03:16:10;;;;;;;0.00;0.00;;;23.50;39.80;;;;;;5357628;26;20238;-47
2024/04/25 03:18:42;;;;;;;0.00;0.00;;;23.50;39.80;;;;;;5374865;26;20226;-47
2024/04/25 03:21:11;;;;;;;0.00;0.00;;;23.50;39.60;;;;;;5375886;26;20711;-59
2024/04/25 03:23:44;;;;;;;0.00;0.00;;;23.50;39.60;;;;;;5376036;26;20270;-52
2024/04/25 03:26:13;;;;;;;0.00;0.00;;;23.60;39.60;;;;;;5376598;26;20214;-59
2024/04/25 03:28:48;;;;;;;0.00;0.00;;;23.60;39.60;;;;;;5374739;26;20266;-55
2024/04/25 03:31:17;;;;;;;0.00;0.00;;;23.70;39.70;;;;;;5375249;26;20558;-50
2024/04/25 03:33:49;;;;;;;0.00;0.00;;;23.70;39.70;;;;;;5364216;26;20239;-53
2024/04/25 03:36:19;;;;;;;0.03;0.03;;;23.80;39.70;;;;;;5375080;26;20257;-49
2024/04/25 03:38:51;;;;;;;0.10;0.10;;;23.80;39.80;;;;;;5375978;26;20616;-49
2024/04/25 03:41:23;;;;;;;0.00;0.00;;;23.80;39.80;;;;;;5374886;26;20265;-47
2024/04/25 03:43:59;;;;;;;0.00;0.00;;;23.90;39.70;;;;;;5376626;26;20218;-49
2024/04/25 03:46:31;;;;;;;0.00;0.00;;;23.90;39.70;;;;;;5373548;26;20616;-51
2024/04/25 03:49:04;;;;;;;0.00;0.00;;;24.00;39.80;;;;;;5375200;26;20230;-48
2024/04/25 03:51:36;;;;;;;0.00;0.00;;;24.00;39.70;;;;;;5375179;26;20218;-47
2024/04/25 03:54:08;;;;;;;0.08;0.08;;;24.00;39.70;;;;;;5374108;26;20269;-47
2024/04/25 03:56:41;;;;;;;0.00;0.00;;;24.00;39.70;;;;;;5341074;26;20219;-47
2024/04/25 03:59:16;;;;;;;0.00;0.00;;;24.10;39.70;;;;;;5365416;26;20304;-48
2024/04/25 04:01:48;;;;;;;0.00;0.00;;;24.20;39.70;;;;;;5374418;26;20214;-48
2024/04/25 04:04:21;;;;;;;0.00;0.00;;;24.20;39.70;;;;;;5375069;26;20349;-52
2024/04/25 04:06:53;;;;;;;0.00;0.00;;;24.20;39.70;;;;;;5376350;26;20655;-51
2024/04/25 04:09:25;;;;;;;0.00;0.00;;;24.30;39.70;;;;;;5375146;26;20338;-56
2024/04/25 04:11:58;;;;;;;0.00;0.00;;;24.30;39.70;;;;;;5375662;26;20542;-51
2024/04/25 04:14:33;;;;;;;0.00;0.00;;;24.30;39.60;;;;;;5373690;26;20222;-54
2024/04/25 04:17:05;;;;;;;0.00;0.00;;;24.30;39.40;;;;;;5375461;26;20690;-53
2024/04/25 04:19:38;;;;;;;0.00;0.00;;;24.40;39.40;;;;;;5374081;26;20280;-50
2024/04/25 04:22:10;;;;;;;0.00;0.00;;;24.40;39.50;;;;;;5377719;26;20291;-51
2024/04/25 04:24:42;;;;;;;0.00;0.00;;;24.40;39.40;;;;;;5379250;26;20256;-53
2024/04/25 04:27:14;;;;;;;0.00;0.00;;;24.50;39.40;;;;;;5379032;26;20258;-50
2024/04/25 04:29:50;;;;;;;0.10;0.10;;;24.50;39.40;;;;;;5371696;26;20715;-47
2024/04/25 04:32:22;;;;;;;0.00;0.00;;;24.50;39.50;;;;;;5374506;26;20395;-50
2024/04/25 04:34:54;;;;;;;0.00;0.00;;;24.50;39.60;;;;;;5374419;26;20744;-46
2024/04/25 04:37:27;;;;;;;0.00;0.00;;;24.50;39.30;;;;;;5341055;26;20216;-49
2024/04/25 04:39:59;;;;;;;0.00;0.00;;;24.60;39.30;;;;;;5338982;26;20461;-48
2024/04/25 04:42:31;;;;;;;0.00;0.00;;;24.50;39.30;;;;;;5340126;26;20708;-47
2024/04/25 04:45:08;;;;;;;0.00;0.00;;;24.60;39.40;;;;;;5370205;26;20724;-53
2024/04/25 04:47:40;;;;;;;0.00;0.00;;;24.60;39.40;;;;;;5374058;26;20226;-49
2024/04/25 04:50:13;;;;;;;0.10;0.10;;;24.60;39.30;;;;;;5374362;26;20820;-50
2024/04/25 04:52:45;;;;;;;0.03;0.03;;;24.60;39.30;;;;;;5372186;26;20327;-53
2024/04/25 04:55:17;;;;;;;0.00;0.00;;;24.60;39.30;;;;;;5369048;26;20353;-48
2024/04/25 04:57:49;;;;;;;0.00;0.00;;;24.70;39.50;;;;;;5371339;26;20218;-47
2024/04/25 05:00:25;;;;;;;0.00;0.00;;;24.70;39.50;;;;;;5373339;26;20706;-47
2024/04/25 05:02:57;;;;;;;0.00;0.00;;;24.70;39.50;;;;;;5370420;26;20600;-47
2024/04/25 05:05:30;;;;;;;0.00;0.00;;;24.70;39.60;;;;;;5372515;26;20206;-48
2024/04/25 05:08:02;;;;;;;0.00;0.00;;;24.70;39.60;;;;;;5370591;26;20539;-48
2024/04/25 05:10:31;;;;;;;0.00;0.00;;;24.70;39.60;;;;;;5371104;26;20555;-47
2024/04/25 05:13:04;;;;;;;0.00;0.00;;;24.70;39.60;;;;;;5368542;26;20285;-49
2024/04/25 05:15:39;;;;;;;0.00;0.00;;;24.70;39.70;;;;;;5372199;26;20319;-48
2024/04/25 05:18:11;;;;;;;0.00;0.00;;;24.70;39.70;;;;;;5371541;26;20763;-53
2024/04/25 05:20:43;;;;;;;0.00;0.00;;;24.70;39.70;;;;;;5370815;26;20226;-55
2024/04/25 05:23:15;;;;;;;0.00;0.00;;;24.70;39.70;;;;;;5371028;26;20253;-47
2024/04/25 05:25:49;;;;;;;0.00;0.00;;;24.70;39.70;;;;;;5369302;26;20768;-52
2024/04/25 05:28:23;;;;;;;0.00;0.00;;;24.70;39.60;;;;;;5371153;26;20257;-52
2024/04/25 05:31:00;;;;;;;0.00;0.00;;;24.70;39.50;;;;;;5370793;26;20258;-48
2024/04/25 05:33:38;;;;;;;0.00;0.00;;;24.70;39.50;;;;;;5369759;26;20234;-48
2024/04/25 05:36:13;;;;;;;0.00;0.00;;;24.70;39.50;;;;;;5371657;26;20273;-50
2024/04/25 05:38:48;;;;;;;0.00;0.00;;;24.70;39.50;;;;;;5341324;26;20709;-49
2024/04/25 05:41:21;;;;;;;0.00;0.00;;;24.70;39.60;;;;;;5339672;26;20244;-48
2024/04/25 05:43:54;;;;;;;0.00;0.00;;;24.70;39.70;;;;;;5311648;26;20279;-51
2024/04/25 05:46:31;;;;;;;0.00;0.00;;;24.60;39.60;;;;;;5363907;26;20269;-54
2024/04/25 05:49:03;;;;;;;0.00;0.00;;;24.60;39.60;;;;;;5373723;26;20242;-47
2024/04/25 05:51:35;;;;;;;0.00;0.00;;;24.60;39.70;;;;;;5358241;26;20224;-47
2024/04/25 05:54:08;;;;;;;0.00;0.00;;;24.60;39.70;;;;;;5374635;26;20218;-49
2024/04/25 05:56:40;;;;;;;0.00;0.00;;;24.60;39.70;;;;;;5375823;26;20694;-50
2024/04/25 05:59:12;;;;;;;0.00;0.00;;;24.60;39.60;;;;;;5374246;26;20226;-48
2024/04/25 06:01:48;;;;;;;0.00;0.00;;;24.60;39.50;;;;;;5374463;26;20215;-49
2024/04/25 06:04:20;;;;;;;0.00;0.00;;;24.50;39.40;;;;;;5374522;26;20607;-47
2024/04/25 06:06:52;;;;;;;0.00;0.00;;;24.50;39.40;;;;;;5374126;26;20702;-52
2024/04/25 06:09:25;;;;;;;0.08;0.08;;;24.50;39.40;;;;;;5374228;26;20719;-47
2024/04/25 06:11:57;;;;;;;0.00;0.00;;;24.50;39.40;;;;;;5370714;26;20660;-51
2024/04/25 06:14:30;;;;;;;0.00;0.00;;;24.50;39.40;;;;;;5373575;26;20226;-50
2024/04/25 06:17:05;;;;;;;0.10;0.10;;;24.40;39.50;;;;;;5374361;26;20741;-52
2024/04/25 06:19:38;;;;;;;0.00;0.00;;;24.40;39.50;;;;;;5374713;26;20230;-48
2024/04/25 06:22:10;;;;;;;0.00;0.00;;;24.40;39.60;;;;;;5373584;26;20214;-48
2024/04/25 06:24:42;;;;;;;0.00;0.00;;;24.40;39.70;;;;;;5374755;26;20219;-48
2024/04/25 06:27:14;;;;;;;0.00;0.00;;;24.30;39.70;;;;;;5374305;26;20210;-49
2024/04/25 06:29:47;;;;;;;0.00;0.00;;;24.30;39.70;;;;;;5372616;26;21089;-48
2024/04/25 06:32:22;;;;;;;0.00;0.00;;;24.30;39.70;;;;;;5372917;26;20222;-47
2024/04/25 06:34:54;;;;;;;0.00;0.00;;;24.20;39.70;;;;;;5373659;26;20210;-47
2024/04/25 06:37:27;;;;;;;0.00;0.00;;;24.20;39.80;;;;;;5373695;26;20729;-48
2024/04/25 06:39:59;;;;;;;0.00;0.00;;;24.20;39.80;;;;;;5372786;26;20226;-50
2024/04/25 06:42:31;;;;;;;0.10;0.10;;;24.20;39.80;;;;;;5375425;26;20218;-48
2024/04/25 06:45:03;;;;;;;0.00;0.00;;;24.20;39.90;;;;;;5361322;26;20338;-54
2024/04/25 06:47:41;;;;;;;0.00;0.00;;;24.20;39.90;;;;;;5376364;26;20210;-48
2024/04/25 06:50:13;;;;;;;0.00;0.00;;;24.10;40.00;;;;;;5378175;26;20226;-48
2024/04/25 06:52:46;;;;;;;0.00;0.00;;;24.10;40.00;;;;;;5381519;26;20221;-49
2024/04/25 06:55:19;;;;;;;0.00;0.00;;;24.10;40.00;;;;;;5380953;26;20307;-48
2024/04/25 06:57:53;;;;;;;0.00;0.00;;;24.10;40.00;;;;;;5378939;26;20672;-48
2024/04/25 07:00:26;;;;;;;0.00;0.00;;;24.10;40.10;;;;;;5379781;26;20234;-48
2024/04/25 07:03:01;;;;;;;0.00;0.00;;;24.00;40.00;;;;;;5379636;26;20310;-48
2024/04/25 07:05:33;;;;;;;0.00;0.00;;;24.00;40.10;;;;;;5381007;26;20221;-48
2024/04/25 07:08:06;;;;;;;0.00;0.00;;;24.00;40.10;;;;;;5381116;26;20553;-49
2024/04/25 07:10:38;;;;;;;0.00;0.00;;;24.00;40.20;;;;;;5380989;26;20226;-48
2024/04/25 07:13:10;;;;;;;0.00;0.00;;;24.00;40.20;;;;;;5381199;26;20214;-51
2024/04/25 07:15:42;;;;;;;0.00;0.00;;;23.90;40.20;;;;;;5381018;26;20218;-50
2024/04/25 07:18:18;;;;;;;0.00;0.00;;;23.90;40.30;;;;;;5394361;21;20296;-50
2024/04/25 07:20:50;;;;;;;0.00;0.00;;;23.90;40.30;;;;;;5380118;26;20238;-49
2024/04/25 07:23:23;;;;;;;0.00;0.00;;;23.80;40.30;;;;;;5380521;26;20222;-49
2024/04/25 07:25:55;;;;;;;0.00;0.00;;;23.80;40.40;;;;;;5380340;26;20298;-52
2024/04/25 07:28:27;;;;;;;0.00;0.00;;;23.80;40.40;;;;;;5381119;26;20219;-49
2024/04/25 07:31:00;;;;;;;0.00;0.00;;;23.80;40.50;;;;;;5379859;26;20338;-52
2024/04/25 07:33:35;;;;;;;0.10;0.10;;;23.80;40.50;;;;;;5374818;26;20227;-55
2024/04/25 07:36:07;;;;;;;0.00;0.00;;;23.80;40.50;;;;;;5345760;26;20257;-53
2024/04/25 07:38:40;;;;;;;0.00;0.00;;;23.70;40.50;;;;;;5345912;26;20223;-52
2024/04/25 07:41:12;;;;;;;0.00;0.00;;;23.70;40.50;;;;;;5345892;26;20223;-52
2024/04/25 07:43:44;;;;;;;0.00;0.00;;;23.70;40.50;;;;;;5345982;26;20223;-50
2024/04/25 07:46:17;;;;;;;0.10;0.10;;;23.70;40.60;;;;;;5360543;26;20231;-50
2024/04/25 07:48:53;;;;;;;0.00;0.00;;;23.60;40.60;;;;;;5349360;26;20235;-51
2024/04/25 07:51:25;;;;;;;0.00;0.00;;;23.60;40.60;;;;;;5346135;26;20227;-49
2024/04/25 07:53:57;;;;;;;0.00;0.00;;;23.60;40.60;;;;;;5345513;26;20566;-52
2024/04/25 07:56:32;;;;;;;0.00;0.00;;;23.60;40.60;;;;;;5345555;26;20626;-52
2024/04/25 07:59:05;;;;;;;0.00;0.00;;;23.50;40.60;;;;;;5345293;26;20727;-50
2024/04/25 08:01:37;;;;;;;0.00;0.00;;;23.50;40.60;;;;;;5345302;26;20332;-54
2024/04/25 08:04:13;;;;;;;0.00;0.00;;;23.50;40.60;;;;;;5344041;26;20227;-54
2024/04/25 08:06:46;;;;;;;0.03;0.03;;;23.50;40.70;;;;;;5344859;26;20219;-51
2024/04/25 08:09:18;;;;;;;0.00;0.00;;;23.50;40.70;;;;;;5345124;26;20277;-51
2024/04/25 08:11:50;;;;;;;0.00;0.00;;;23.50;40.70;;;;;;5344886;26;20305;-50
2024/04/25 08:14:23;;;;;;;0.00;0.00;;;23.40;40.80;;;;;;5344964;26;20286;-50
2024/04/25 08:16:55;;;;;;;0.00;0.00;;;23.40;40.80;;;;;;5383348;21;20309;-47
2024/04/25 08:19:30;;;;;;;0.00;0.00;;;23.40;40.80;;;;;;5344341;26;20275;-47
2024/04/25 08:22:03;;;;;;;0.00;0.00;;;23.40;40.80;;;;;;5344858;26;20808;-51
2024/04/25 08:24:35;;;;;;;0.00;0.00;;;23.40;40.80;;;;;;5344887;26;20275;-48
2024/04/25 08:27:07;;;;;;;0.00;0.00;;;23.30;40.80;;;;;;5344811;26;20223;-49
2024/04/25 08:29:40;;;;;;;0.00;0.00;;;23.30;40.80;;;;;;5345121;26;20232;-47
2024/04/25 08:32:12;;;;;;;0.10;0.10;;;23.30;40.80;;;;;;5344774;26;20249;-50
2024/04/25 08:34:47;;;;;;;0.00;0.00;;;23.30;40.80;;;;;;5344423;26;20275;-48
2024/04/25 08:37:20;;;;;;;0.10;0.10;;;23.30;40.90;;;;;;5310382;26;20680;-50
2024/04/25 08:39:52;;;;;;;0.00;0.00;;;23.20;40.80;;;;;;5309959;27;20283;-48
2024/04/25 08:42:26;;;;;;;0.00;0.00;;;23.20;40.90;;;;;;5308218;27;20577;-50
2024/04/25 08:44:59;;;;;;;0.00;0.00;;;23.20;41.00;;;;;;5310571;26;20250;-48
2024/04/25 08:47:35;;;;;;;0.00;0.00;;;23.20;41.00;;;;;;5338539;26;20318;-47
2024/04/25 08:50:13;;;;;;;0.10;0.10;;;23.10;41.00;;;;;;5324664;26;20240;-47
2024/04/25 08:52:46;;;;;;;0.00;0.00;;;23.10;41.00;;;;;;5325867;26;20575;-47
2024/04/25 08:55:19;;;;;;;0.00;0.00;;;23.10;41.00;;;;;;5329734;26;20227;-48
2024/04/25 08:57:51;;;;;;;0.00;0.00;;;23.10;41.00;;;;;;5343875;26;20216;-49
2024/04/25 09:00:24;;;;;;;0.00;0.00;;;23.10;41.10;;;;;;5333743;26;20274;-50
2024/04/25 09:02:56;;;;;;;0.10;0.10;;;23.10;41.10;;;;;;5324326;26;20299;-49
2024/04/25 09:05:36;;;;;;;0.08;0.08;;;23.00;41.10;;;;;;5309693;26;20258;-49
2024/04/25 09:08:09;;;;;;;0.00;0.00;;;23.00;41.10;;;;;;5338428;26;21249;-50
2024/04/25 09:10:45;;;;;;;0.00;0.00;;;23.00;41.10;;;;;;5339714;26;20231;-48
2024/04/25 09:13:21;;;;;;;0.00;0.00;;;23.00;41.10;;;;;;5338807;26;20722;-48
2024/04/25 09:15:54;;;;;;;0.00;0.00;;;23.00;41.10;;;;;;5342761;26;20223;-51
2024/04/25 09:18:28;;;;;;;0.00;0.00;;;23.00;41.10;;;;;;5342538;26;20243;-47
2024/04/25 09:21:04;;;;;;;0.10;0.10;;;22.90;41.10;;;;;;5342501;26;20547;-47
2024/04/25 09:23:43;;;;;;;0.00;0.00;;;22.90;41.10;;;;;;5343004;26;20327;-52
2024/04/25 09:26:16;;;;;;;0.00;0.00;;;22.90;41.10;;;;;;5342511;26;20215;-50
2024/04/25 09:28:49;;;;;;;0.00;0.00;;;22.90;41.10;;;;;;5341843;26;20211;-48
2024/04/25 09:31:23;;;;;;;0.00;0.00;;;22.90;41.20;;;;;;5342728;26;20231;-49
2024/04/25 09:33:59;;;;;;;0.05;0.05;;;22.90;41.20;;;;;;5343379;26;20719;-48
2024/04/25 09:36:35;;;;;;;0.00;0.00;;;22.80;41.20;;;;;;5340686;26;20223;-48
2024/04/25 09:39:08;;;;;;;0.03;0.03;;;22.80;41.20;;;;;;5337169;26;20711;-48
2024/04/25 09:41:41;;;;;;;0.00;0.00;;;22.80;41.20;;;;;;5335375;26;20224;-50
2024/04/25 09:44:14;;;;;;;0.10;0.10;;;22.80;41.20;;;;;;5307049;27;20212;-48
2024/04/25 09:46:49;;;;;;;0.00;0.00;;;22.70;41.20;;;;;;5335040;26;20255;-48
2024/04/25 09:49:23;;;;;;;0.10;0.10;;;22.70;41.20;;;;;;5342261;26;20227;-49
2024/04/25 09:52:03;;;;;;;0.00;0.00;;;22.70;41.20;;;;;;5342529;26;20331;-47
2024/04/25 09:54:41;;;;;;;0.10;0.10;;;22.70;41.30;;;;;;5342550;26;20328;-48
2024/04/25 09:57:17;;;;;;;0.00;0.00;;;22.70;41.30;;;;;;5341786;26;20215;-48
2024/04/25 09:59:53;;;;;;;0.10;0.10;;;22.60;41.30;;;;;;5342045;26;20707;-49
2024/04/25 10:02:26;;;;;;;0.00;0.00;;;22.70;41.30;;;;;;5341948;26;20215;-52
2024/04/25 10:04:59;;;;;;;0.10;0.10;;;22.60;41.20;;;;;;5341471;26;20258;-53
2024/04/25 10:07:36;;;;;;;0.00;0.00;;;22.60;41.20;;;;;;5307687;27;20671;-51
2024/04/25 10:10:09;;;;;;;0.00;0.00;;;22.60;41.20;;;;;;5306463;27;20244;-49
2024/04/25 10:12:42;;;;;;;0.00;0.00;;;22.60;41.20;;;;;;5307795;27;20267;-51
2024/04/25 10:15:14;;;;;;;0.10;0.10;;;22.60;41.20;;;;;;5313886;26;20715;-48
2024/04/25 10:17:46;;;;;;;0.00;0.00;;;22.60;41.20;;;;;;5342294;26;20224;-51
2024/04/25 10:20:23;;;;;;;0.08;0.08;;;22.60;41.20;;;;;;5342189;26;20351;-51
2024/04/25 10:23:07;;;;;;;0.08;0.08;;;22.50;41.20;;;;;;5342601;26;20222;-49
2024/04/25 10:25:39;;;;;;;0.03;0.03;;;22.50;41.20;;;;;;5339709;26;20215;-53
2024/04/25 10:28:11;;;;;;;0.10;0.10;;;22.50;41.30;;;;;;5341556;26;20639;-51
2024/04/25 10:30:44;;;;;;;0.00;0.00;;;22.50;41.30;;;;;;5342041;26;20278;-49
2024/04/25 10:33:16;;;;;;;0.00;0.00;;;22.50;41.30;;;;;;5340765;26;20220;-51
2024/04/25 10:35:50;;;;;;;0.03;0.03;;;22.40;41.20;;;;;;5341075;26;20283;-50
2024/04/25 10:38:28;;;;;;;0.00;0.00;;;22.40;41.30;;;;;;5339880;26;20795;-50
2024/04/25 10:41:00;;;;;;;0.05;0.05;;;22.40;41.20;;;;;;5341843;26;20219;-49
2024/04/25 10:43:33;;;;;;;0.00;0.00;;;22.40;41.30;;;;;;5344391;26;20223;-56
2024/04/25 10:46:06;;;;;;;0.10;0.10;;;22.40;41.30;;;;;;5362897;26;20559;-47
2024/04/25 10:48:38;;;;;;;0.00;0.00;;;22.30;41.50;;;;;;5346684;26;20235;-49
2024/04/25 10:51:11;;;;;;;0.00;0.00;;;22.30;41.40;;;;;;5345362;26;20266;-47
2024/04/25 10:53:48;;;;;;;0.00;0.00;;;22.40;41.40;;;;;;5324621;26;20227;-47
2024/04/25 10:56:22;;;;;;;0.00;0.00;;;22.30;41.40;;;;;;5326138;26;20228;-47
2024/04/25 10:58:55;;;;;;;0.00;0.00;;;22.30;41.40;;;;;;5325972;26;20227;-47
2024/04/25 11:01:28;;;;;;;0.10;0.10;;;22.30;41.40;;;;;;5328214;26;20224;-47
2024/04/25 11:04:02;;;;;;;0.00;0.00;;;22.30;41.40;;;;;;5326192;26;20228;-48
2024/04/25 11:06:37;;;;;;;0.00;0.00;;;22.40;41.50;;;;;;5328570;26;20715;-48
2024/04/25 11:09:17;;;;;;;0.03;0.03;;;22.30;41.40;;;;;;5328727;26;20591;-47
2024/04/25 11:11:50;;;;;;;0.00;0.00;;;22.30;41.40;;;;;;5328719;26;20274;-49
2024/04/25 11:14:22;;;;;;;0.00;0.00;;;22.30;41.40;;;;;;5327076;26;20229;-47
2024/04/25 11:16:55;;;;;;;0.00;0.00;;;22.30;41.40;;;;;;5328352;26;20228;-47
2024/04/25 11:19:29;;;;;;;0.00;0.00;;;22.20;41.40;;;;;;5327693;26;20237;-49
2024/04/25 11:22:02;;;;;;;0.00;0.00;;;22.20;41.40;;;;;;5326799;26;20224;-50
2024/04/25 11:24:37;;;;;;;0.00;0.00;;;22.20;41.40;;;;;;5326341;26;20277;-48
2024/04/25 11:27:10;;;;;;;0.00;0.00;;;22.20;41.50;;;;;;5328497;26;20708;-49
2024/04/25 11:29:44;;;;;;;0.00;0.00;;;22.20;41.50;;;;;;5326921;26;20267;-48
2024/04/25 11:32:19;;;;;;;0.00;0.00;;;22.20;41.50;;;;;;5326302;26;20278;-49
2024/04/25 11:34:51;;;;;;;0.00;0.00;;;22.10;41.40;;;;;;5327351;26;20231;-47
2024/04/25 11:37:23;;;;;;;0.10;0.10;;;22.10;41.40;;;;;;5336410;26;20228;-48
2024/04/25 11:39:59;;;;;;;0.00;0.00;;;22.10;41.50;;;;;;5340201;26;20266;-47
2024/04/25 11:42:31;;;;;;;0.10;0.10;;;22.10;41.50;;;;;;5330203;26;20227;-47
2024/04/25 11:45:03;;;;;;;0.10;0.10;;;22.10;41.50;;;;;;5322685;26;20229;-46
2024/04/25 11:47:36;;;;;;;0.08;0.08;;;22.10;41.50;;;;;;5333471;26;20231;-46
2024/04/25 11:50:09;;;;;;;0.00;0.00;;;22.10;41.50;;;;;;5326764;26;20225;-46
2024/04/25 11:52:41;;;;;;;0.00;0.00;;;22.10;41.50;;;;;;5325692;26;20228;-46
2024/04/25 11:55:17;;;;;;;0.00;0.00;;;22.10;41.40;;;;;;5326867;26;20223;-46
2024/04/25 11:57:50;;;;;;;0.00;0.00;;;22.10;41.40;;;;;;5327162;26;21032;-46
2024/04/25 12:00:22;;;;;;;0.10;0.10;;;22.10;41.50;;;;;;5325257;26;20275;-45
2024/04/25 12:02:54;;;;;;;0.10;0.10;;;22.00;41.40;;;;;;5326139;26;20270;-48
2024/04/25 12:05:27;;;;;;;0.00;0.00;;;22.00;41.50;;;;;;5325950;26;20283;-47
2024/04/25 12:08:03;;;;;;;0.10;0.10;;;22.00;41.50;;;;;;5325028;26;20279;-46
2024/04/25 12:10:38;;;;;;;0.00;0.00;;;22.00;41.50;;;;;;5326058;26;20844;-48
2024/04/25 12:13:11;;;;;;;0.00;0.00;;;22.00;41.50;;;;;;5327056;26;20716;-45
2024/04/25 12:15:43;;;;;;;0.00;0.00;;;21.90;41.50;;;;;;5326484;26;20262;-46
2024/04/25 12:18:15;;;;;;;0.10;0.10;;;21.90;41.50;;;;;;5328440;26;20674;-46
2024/04/25 12:20:48;;;;;;;0.00;0.00;;;21.90;41.50;;;;;;5326140;26;20314;-46
2024/04/25 12:23:21;;;;;;;0.10;0.10;;;21.90;41.50;;;;;;5334451;26;20282;-46
2024/04/25 12:25:56;;;;;;;0.08;0.08;;;21.90;41.50;;;;;;5343975;26;20266;-46
2024/04/25 12:28:28;;;;;;;0.00;0.00;;;21.90;41.50;;;;;;5343310;26;20262;-46
2024/04/25 12:31:01;;;;;;;0.10;0.10;;;21.80;41.50;;;;;;5343948;26;20303;-46
2024/04/25 12:33:33;;;;;;;0.00;0.00;;;21.80;42.10;;;;;;5344067;26;20266;-46
2024/04/25 12:36:05;;;;;;;0.00;0.00;;;21.80;41.50;;;;;;5344522;26;20211;-46
2024/04/25 12:38:37;;;;;;;0.10;0.10;;;21.80;41.50;;;;;;5344455;26;20599;-47
2024/04/25 12:41:13;;;;;;;0.00;0.00;;;21.80;41.40;;;;;;5344557;26;20606;-48
2024/04/25 12:43:48;;;;;;;0.00;0.00;;;21.80;41.40;;;;;;5344658;26;20289;-46
2024/04/25 12:46:20;;;;;;;0.00;0.00;;;21.80;41.30;;;;;;5344309;26;20261;-46
2024/04/25 12:48:52;;;;;;;0.00;0.00;;;21.70;41.30;;;;;;5343004;26;20232;-46
2024/04/25 12:51:24;;;;;;;0.00;0.00;;;21.80;41.30;;;;;;5343972;26;20223;-46
2024/04/25 12:53:54;;;;;;;0.10;0.10;;;21.70;41.30;;;;;;5344030;26;20220;-46
2024/04/25 12:56:30;;;;;;;0.00;0.00;;;21.70;41.30;;;;;;5344741;26;20741;-47
2024/04/25 12:59:02;;;;;;;0.00;0.00;;;21.70;41.30;;;;;;5344646;26;20313;-46
2024/04/25 13:01:34;;;;;;;0.00;0.00;;;21.70;41.30;;;;;;5344436;26;20687;-47
2024/04/25 13:04:07;;;;;;;0.00;0.00;;;21.60;41.20;;;;;;5343856;26;20262;-47
2024/04/25 13:06:39;;;;;;;0.00;0.00;;;21.60;41.20;;;;;;5343736;26;20223;-46
2024/04/25 13:09:11;;;;;;;0.00;0.00;;;21.60;41.20;;;;;;5343695;26;20228;-46
2024/04/25 13:11:47;;;;;;;0.00;0.00;;;21.60;41.20;;;;;;5313945;26;20716;-47
2024/04/25 13:14:19;;;;;;;0.10;0.10;;;21.60;41.20;;;;;;5309898;26;20216;-51
2024/04/25 13:16:51;;;;;;;0.00;0.00;;;21.60;41.10;;;;;;5339115;26;20331;-46
2024/04/25 13:19:24;;;;;;;0.00;0.00;;;21.50;41.00;;;;;;5344094;26;20758;-48
2024/04/25 13:21:56;;;;;;;0.00;0.00;;;21.50;41.00;;;;;;5343797;26;20289;-46
2024/04/25 13:24:28;;;;;;;0.00;0.00;;;21.50;41.00;;;;;;5343641;26;20568;-49